Time;durP1;ratioP1;P1;durP2;ratioP2;P2;SDS_P1;SDS_P2;PMS_P1;PMS_P2;Temp;Humidity;BMP_temperature;BMP_pressure;BME280_temperature;BME280_humidity;BME280_pressure;Samples;Min_cycle;Max_cycle;Signal;HPM_P1;HPM_P2
2022/01/26 00:08:04;;;;;;;14.90;9.60;;;;;;;2.62;84.79;100776.29;207755;1313;231869;-69
2022/01/26 00:13:07;;;;;;;13.20;8.00;;;;;;;2.56;84.89;100768.63;208405;1313;140547;-67
2022/01/26 00:18:10;;;;;;;12.30;7.90;;;;;;;2.49;84.98;100764.60;208075;1313;141605;-67
2022/01/26 00:24:04;;;;;;;13.20;9.10;;;;;;;2.51;85.21;100756.16;208331;1314;140187;-68
2022/01/26 00:29:07;;;;;;;13.90;8.40;;;;;;;2.54;85.03;100754.27;208232;1313;140054;-67
2022/01/26 00:39:47;;;;;;;19.90;9.80;;;;;;;2.44;85.01;100748.80;207303;1313;141817;-67
2022/01/26 00:44:50;;;;;;;22.20;11.30;;;;;;;2.48;85.49;100748.91;208429;1313;139824;-68
2022/01/26 00:50:02;;;;;;;16.70;9.70;;;;;;;2.51;85.22;100742.67;207775;1313;139690;-66
2022/01/26 00:55:10;;;;;;;19.10;10.90;;;;;;;2.48;85.07;100736.30;208477;1313;139069;-68
2022/01/26 01:00:23;;;;;;;19.10;11.00;;;;;;;2.49;85.00;100733.98;208430;1313;140610;-66
2022/01/26 01:06:13;;;;;;;20.80;13.20;;;;;;;2.49;85.08;100734.77;207845;1313;140733;-67
2022/01/26 01:10:57;;;;;;;17.60;11.40;;;;;;;2.49;85.50;100731.44;208758;1313;139610;-66
2022/01/26 01:16:01;;;;;;;17.40;10.60;;;;;;;2.43;85.24;100724.23;209487;1314;140245;-68
2022/01/26 01:32:10;;;;;;;19.80;12.20;;;;;;;2.50;85.15;100713.67;207665;1313;150529;-72
2022/01/26 01:37:16;;;;;;;21.50;13.30;;;;;;;2.51;85.34;100710.20;207333;1313;141730;-69
2022/01/26 01:42:21;;;;;;;22.60;11.50;;;;;;;2.53;85.19;100709.63;209570;1314;141207;-70
2022/01/26 01:47:26;;;;;;;17.00;11.80;;;;;;;2.60;85.40;100708.92;210284;1313;140934;-68
2022/01/26 01:52:41;;;;;;;16.60;13.80;;;;;;;2.64;85.43;100701.11;209364;1313;141610;-71
2022/01/26 01:57:45;;;;;;;18.30;11.90;;;;;;;2.64;85.14;100697.89;209198;1313;140957;-70
2022/01/26 02:02:48;;;;;;;16.40;9.80;;;;;;;2.66;85.53;100693.16;208396;1313;142586;-69
2022/01/26 02:08:01;;;;;;;19.50;11.90;;;;;;;2.66;85.12;100684.11;208545;1314;140256;-69
2022/01/26 02:13:16;;;;;;;15.60;11.10;;;;;;;2.63;85.33;100686.80;208739;1313;140598;-71
2022/01/26 02:18:35;;;;;;;21.90;13.20;;;;;;;2.65;85.51;100677.98;207687;1314;162254;-69
2022/01/26 02:56:01;;;;;;;15.10;10.50;;;;;;;2.53;85.43;100671.16;209064;1313;140943;-71
2022/01/26 03:06:15;;;;;;;16.60;10.10;;;;;;;2.53;85.26;100675.64;207711;1313;141261;-76
2022/01/26 03:11:19;;;;;;;14.80;8.90;;;;;;;2.52;85.55;100673.95;208069;1314;142704;-79
2022/01/26 03:16:38;;;;;;;24.50;13.70;;;;;;;2.52;85.35;100672.60;207528;1314;140534;-73
2022/01/26 03:21:54;;;;;;;32.60;17.30;;;;;;;2.48;85.68;100672.65;208689;1313;140492;-79
2022/01/26 03:33:12;;;;;;;11.90;7.80;;;;;;;2.50;85.51;100674.20;207712;1313;141336;-72
2022/01/26 03:37:54;;;;;;;12.30;7.50;;;;;;;2.48;85.50;100668.90;208198;1313;140094;-81
2022/01/26 03:42:59;;;;;;;12.70;7.40;;;;;;;2.49;85.60;100666.93;207887;1315;139222;-83
2022/01/26 03:48:02;;;;;;;16.30;9.00;;;;;;;2.44;85.53;100661.83;208543;1313;139829;-79
2022/01/26 03:53:05;;;;;;;10.00;7.00;;;;;;;2.45;85.52;100661.89;209561;1313;141749;-82
2022/01/26 03:58:08;;;;;;;8.90;7.30;;;;;;;2.49;85.56;100661.23;209091;1313;139494;-76
2022/01/26 04:03:11;;;;;;;12.80;8.60;;;;;;;2.54;85.62;100664.59;209248;1313;139928;-81
2022/01/26 04:08:23;;;;;;;11.40;7.50;;;;;;;2.57;85.68;100665.75;208998;1314;141183;-81
2022/01/26 04:13:26;;;;;;;17.60;8.00;;;;;;;2.56;85.41;100667.72;208785;1313;140085;-76
2022/01/26 04:18:39;;;;;;;13.00;7.10;;;;;;;2.56;85.44;100671.11;208718;1313;141865;-79
2022/01/26 04:23:59;;;;;;;13.50;7.40;;;;;;;2.55;85.18;100677.54;207747;1313;140263;-77
2022/01/26 04:29:08;;;;;;;9.30;7.70;;;;;;;2.53;85.50;100678.98;209605;1313;141465;-76
2022/01/26 04:34:15;;;;;;;12.90;7.40;;;;;;;2.48;85.41;100676.52;209407;1313;138997;-74
2022/01/26 04:39:26;;;;;;;9.40;7.80;;;;;;;2.48;85.53;100679.63;207705;1313;139984;-82
2022/01/26 04:44:44;;;;;;;8.90;5.70;;;;;;;2.52;85.36;100674.17;208316;1316;139982;-78
2022/01/26 04:49:48;;;;;;;11.50;6.90;;;;;;;2.48;85.57;100674.27;207614;1314;140548;-76
2022/01/26 04:54:51;;;;;;;16.40;8.90;;;;;;;2.41;85.34;100672.11;208918;1313;139144;-77
2022/01/26 04:59:54;;;;;;;12.60;7.20;;;;;;;2.38;85.45;100657.55;208787;1315;140467;-81
2022/01/26 05:04:57;;;;;;;11.80;7.50;;;;;;;2.39;85.33;100659.94;208872;1313;140484;-78
2022/01/26 05:10:02;;;;;;;10.90;9.00;;;;;;;2.41;85.46;100661.14;208226;1314;139786;-76
2022/01/26 05:15:06;;;;;;;14.10;7.70;;;;;;;2.40;85.78;100658.23;207431;1314;141507;-70
2022/01/26 05:20:12;;;;;;;12.50;7.40;;;;;;;2.43;85.57;100656.70;207555;1313;143584;-79
2022/01/26 05:25:16;;;;;;;37.90;31.00;;;;;;;2.41;85.71;100659.53;208656;1313;142534;-73
2022/01/26 05:30:19;;;;;;;15.50;12.80;;;;;;;2.36;85.40;100661.38;207888;1313;139891;-80
2022/01/26 05:35:34;;;;;;;22.50;14.50;;;;;;;2.32;85.28;100662.54;207968;1313;140401;-74
2022/01/26 05:40:37;;;;;;;14.90;11.30;;;;;;;2.31;85.54;100658.92;208832;1313;141923;-76
2022/01/26 05:45:49;;;;;;;18.40;12.20;;;;;;;2.32;85.24;100656.86;209126;1314;141162;-75
2022/01/26 05:51:05;;;;;;;13.40;9.00;;;;;;;2.33;85.56;100648.52;208857;1313;140259;-73
2022/01/26 05:56:08;;;;;;;16.90;8.50;;;;;;;2.31;85.37;100647.18;209447;1316;139451;-79
2022/01/26 06:01:12;;;;;;;9.50;7.10;;;;;;;2.33;85.19;100649.92;210014;1311;140921;-67
2022/01/26 06:06:16;;;;;;;10.60;6.40;;;;;;;2.33;85.00;100651.50;209577;1313;140915;-75
2022/01/26 06:11:19;;;;;;;12.90;8.40;;;;;;;2.31;85.38;100648.37;208506;1316;139688;-75
2022/01/26 06:16:23;;;;;;;8.60;5.90;;;;;;;2.30;85.08;100653.29;209037;1313;139967;-72
2022/01/26 06:21:32;;;;;;;18.10;11.30;;;;;;;2.25;84.95;100649.45;208667;1317;140216;-74
2022/01/26 06:26:37;;;;;;;20.50;8.20;;;;;;;2.22;84.95;100650.95;207955;1313;140425;-68
2022/01/26 06:31:43;;;;;;;8.70;6.90;;;;;;;2.17;84.97;100641.30;207695;1313;139136;-81
2022/01/26 06:36:48;;;;;;;13.20;6.20;;;;;;;2.14;84.95;100632.44;207990;1313;140019;-85
2022/01/26 06:41:54;;;;;;;10.70;7.80;;;;;;;2.16;85.22;100628.53;208047;1313;140217;-78
2022/01/26 06:47:16;;;;;;;12.20;7.20;;;;;;;2.20;85.05;100630.82;208651;1313;140775;-85
2022/01/26 06:52:20;;;;;;;9.50;6.90;;;;;;;2.21;85.22;100632.30;208471;1313;139319;-83
2022/01/26 06:57:23;;;;;;;10.50;5.80;;;;;;;2.21;84.82;100625.63;208949;1316;141235;-80
2022/01/26 07:02:25;;;;;;;12.40;6.20;;;;;;;2.22;84.89;100620.63;207234;1313;926156;-75
2022/01/26 07:07:35;;;;;;;8.60;6.40;;;;;;;2.24;84.90;100627.78;208908;1313;139962;-77
2022/01/26 07:12:39;;;;;;;11.60;6.30;;;;;;;2.26;84.87;100627.20;208536;1314;139847;-69
2022/01/26 07:23:03;;;;;;;10.00;6.70;;;;;;;2.32;84.81;100619.92;208282;1313;140992;-68
2022/01/26 07:28:06;;;;;;;8.20;5.50;;;;;;;2.30;84.76;100628.00;207816;1313;140181;-69
2022/01/26 07:33:09;;;;;;;12.90;6.10;;;;;;;2.26;84.90;100630.33;207377;1316;141108;-71
2022/01/26 07:38:12;;;;;;;11.10;9.60;;;;;;;2.24;84.53;100624.75;208129;1315;142208;-79
2022/01/26 07:43:14;;;;;;;8.30;5.60;;;;;;;2.25;84.81;100624.98;208436;1316;140688;-77
2022/01/26 07:48:17;;;;;;;10.60;6.90;;;;;;;2.33;85.28;100628.25;207594;1314;140379;-77
2022/01/26 07:53:20;;;;;;;9.40;5.60;;;;;;;2.40;84.99;100621.77;208111;1313;141971;-74
2022/01/26 07:58:22;;;;;;;16.90;7.40;;;;;;;2.42;84.80;100629.96;210264;1313;140689;-75
2022/01/26 08:03:48;;;;;;;8.80;6.00;;;;;;;2.42;85.05;100628.88;209788;1313;140217;-80
2022/01/26 08:08:51;;;;;;;12.50;7.10;;;;;;;2.46;84.92;100628.17;207730;1313;140492;-76
2022/01/26 08:13:54;;;;;;;13.40;9.00;;;;;;;2.52;84.89;100625.16;209286;1313;140472;-80
2022/01/26 08:19:08;;;;;;;16.30;11.20;;;;;;;2.54;84.95;100621.82;208319;1312;210883;-77
2022/01/26 08:24:15;;;;;;;14.20;8.40;;;;;;;2.54;84.88;100621.16;208877;1313;140851;-73
2022/01/26 08:29:26;;;;;;;14.30;7.00;;;;;;;2.62;85.04;100618.67;209424;1313;143462;-77
2022/01/26 08:34:37;;;;;;;11.00;7.60;;;;;;;2.65;84.95;100607.67;207344;1313;153648;-75
2022/01/26 08:39:39;;;;;;;14.40;8.30;;;;;;;2.61;84.79;100609.13;208493;1314;140555;-78
2022/01/26 08:44:47;;;;;;;13.60;8.10;;;;;;;2.65;85.11;100607.98;207469;1313;141100;-70
2022/01/26 08:49:50;;;;;;;16.60;9.50;;;;;;;2.75;85.25;100607.52;207570;1313;139744;-69
2022/01/26 08:54:56;;;;;;;19.00;11.10;;;;;;;2.78;85.23;100603.65;208696;1313;139969;-69
2022/01/26 09:00:01;;;;;;;18.50;12.40;;;;;;;2.84;85.32;100600.52;208665;1310;140374;-69
2022/01/26 09:05:08;;;;;;;19.90;12.30;;;;;;;2.93;85.39;100594.27;207504;1313;142010;-71
2022/01/26 09:10:32;;;;;;;;;;;;;;;;;;;;;
2022/01/26 09:15:40;;;;;;;17.90;9.20;;;;;;;2.97;85.26;100593.15;208251;1313;139301;-74
2022/01/26 09:20:43;;;;;;;18.50;11.70;;;;;;;3.03;85.43;100588.45;207960;1313;139923;-68
2022/01/26 09:25:48;;;;;;;18.10;11.80;;;;;;;3.04;85.08;100592.23;207921;1317;233069;-68
2022/01/26 09:31:03;;;;;;;;;;;;;;;;;;;;;
2022/01/26 09:36:08;;;;;;;19.40;11.20;;;;;;;2.98;85.21;100594.47;208227;1314;140336;-68
2022/01/26 09:41:12;;;;;;;16.60;11.70;;;;;;;3.03;85.44;100589.56;207950;1315;140676;-68
2022/01/26 09:46:30;;;;;;;;;;;;;;;;;;;;;
2022/01/26 09:51:41;;;;;;;19.30;11.60;;;;;;;3.07;85.50;100580.29;209382;1314;141560;-73
2022/01/26 09:56:46;;;;;;;21.70;11.70;;;;;;;3.15;85.58;100570.14;208389;1315;140596;-74
2022/01/26 10:02:02;;;;;;;23.50;13.50;;;;;;;3.21;85.52;100567.93;209144;1316;141364;-74
2022/01/26 10:18:21;;;;;;;16.70;10.80;;;;;;;3.38;85.26;100553.50;208228;1318;153519;-78
2022/01/26 10:23:28;;;;;;;16.50;10.90;;;;;;;3.45;85.58;100545.58;209084;1319;143079;-78
2022/01/26 10:28:59;;;;;;;16.00;10.90;;;;;;;3.52;85.87;100545.73;209296;1313;141335;-70
2022/01/26 10:34:19;;;;;;;14.40;9.80;;;;;;;3.59;85.91;100541.04;208553;1313;152829;-68
2022/01/26 10:44:32;;;;;;;13.50;8.30;;;;;;;3.69;85.88;100537.59;209166;1313;141817;-68
2022/01/26 10:55:12;;;;;;;14.10;8.30;;;;;;;3.67;85.95;100533.41;208017;1313;141317;-73
2022/01/26 11:00:20;;;;;;;12.70;9.30;;;;;;;3.74;86.02;100533.23;207837;1314;142201;-74
2022/01/26 11:05:28;;;;;;;9.00;6.90;;;;;;;3.80;86.42;100525.70;207970;1313;142161;-72
2022/01/26 11:10:36;;;;;;;10.80;7.20;;;;;;;3.87;86.29;100526.98;207703;1313;139946;-70
2022/01/26 11:15:42;;;;;;;8.80;6.60;;;;;;;3.93;86.11;100518.55;207476;1315;142206;-68
2022/01/26 11:20:51;;;;;;;10.70;5.50;;;;;;;3.97;86.11;100517.25;208483;1315;141770;-74
2022/01/26 11:25:53;;;;;;;8.60;5.30;;;;;;;3.94;86.08;100514.80;207511;1316;140650;-72
2022/01/26 11:31:03;;;;;;;5.30;4.00;;;;;;;3.99;86.13;100507.13;207590;1314;142015;-70
2022/01/26 11:36:21;;;;;;;;;;;;;;;;;;;;;
2022/01/26 11:46:52;;;;;;;6.70;4.70;;;;;;;3.99;86.10;100490.84;207900;1317;138956;-70
2022/01/26 11:52:01;;;;;;;5.80;4.40;;;;;;;4.05;86.29;100488.54;207646;1313;140339;-68
2022/01/26 11:57:16;;;;;;;4.90;3.90;;;;;;;4.05;86.19;100486.70;208459;1313;139519;-66
2022/01/26 12:02:37;;;;;;;6.30;4.60;;;;;;;4.06;86.13;100481.94;208537;1313;139216;-69
2022/01/26 12:08:08;;;;;;;5.30;4.60;;;;;;;4.10;86.03;100483.20;208147;1313;140372;-70
2022/01/26 12:13:20;;;;;;;7.10;5.30;;;;;;;4.11;85.95;100484.05;209642;1313;139960;-74
2022/01/26 12:45:45;;;;;;;6.70;5.80;;;;;;;3.99;85.65;100483.22;209489;1313;140828;-74
2022/01/26 12:50:52;;;;;;;13.30;9.90;;;;;;;3.95;85.83;100482.15;207995;1313;139529;-70
2022/01/26 12:55:58;;;;;;;10.70;9.10;;;;;;;3.97;86.01;100480.35;207598;1313;139411;-76
2022/01/26 13:01:20;;;;;;;9.20;6.90;;;;;;;3.96;86.06;100479.05;207693;1313;140821;-78
2022/01/26 13:06:56;;;;;;;9.90;7.60;;;;;;;3.93;85.99;100479.02;207754;1313;141017;-75
2022/01/26 13:12:07;;;;;;;10.00;6.90;;;;;;;3.91;86.04;100476.99;207775;1313;140552;-73
2022/01/26 13:23:07;;;;;;;10.70;7.40;;;;;;;3.79;86.08;100470.25;207631;1313;139444;-69
2022/01/26 13:28:24;;;;;;;7.60;5.50;;;;;;;3.84;86.18;100473.60;207602;1314;140225;-73
2022/01/26 13:39:34;;;;;;;8.20;6.30;;;;;;;3.75;85.99;100468.46;208656;1313;139968;-70
2022/01/26 13:46:41;;;;;;;10.90;8.10;;;;;;;3.71;85.96;100469.52;207525;1313;140796;-72
2022/01/26 13:50:24;;;;;;;;;;;;;;;3.65;86.06;100465.33;207395;1313;140471;-72
2022/01/26 14:01:26;;;;;;;12.60;8.70;;;;;;;3.57;86.17;100449.34;207803;1314;142011;-77
2022/01/26 14:06:21;;;;;;;14.40;9.00;;;;;;;3.59;86.46;100457.61;209582;1313;150344;-82
2022/01/26 14:11:23;;;;;;;10.80;7.00;;;;;;;3.55;86.18;100450.63;208049;1313;141085;-79
2022/01/26 14:16:28;;;;;;;12.60;8.40;;;;;;;3.53;86.19;100452.08;208075;1313;140792;-74
2022/01/26 14:26:55;;;;;;;11.40;7.90;;;;;;;3.51;86.11;100450.19;209284;1316;140803;-76
2022/01/26 14:33:08;;;;;;;9.30;5.60;;;;;;;3.49;86.15;100451.31;209836;1313;141117;-75
2022/01/26 15:10:42;;;;;;;9.10;6.00;;;;;;;3.21;86.02;100451.85;207508;1313;223230;-68
2022/01/26 15:22:34;;;;;;;6.60;5.70;;;;;;;3.11;86.11;100452.98;207376;1313;139415;-74
2022/01/26 16:37:43;;;;;;;13.40;8.50;;;;;;;2.96;85.90;100427.16;207829;1319;140097;-76
2022/01/26 17:26:44;;;;;;;12.90;10.50;;;;;;;2.45;85.72;100429.24;208124;1313;139722;-69
2022/01/26 18:04:45;;;;;;;11.50;9.60;;;;;;;2.10;85.07;100409.88;207931;1313;140788;-74
2022/01/26 18:15:30;;;;;;;12.50;8.70;;;;;;;2.03;85.11;100397.13;209126;1313;140803;-78
2022/01/26 18:53:13;;;;;;;18.80;9.00;;;;;;;2.01;84.91;100385.80;208077;1313;140921;-73
2022/01/26 18:58:16;;;;;;;13.60;7.10;;;;;;;1.96;84.80;100381.42;207941;1313;141074;-73
2022/01/26 19:03:19;;;;;;;15.80;9.40;;;;;;;1.88;84.65;100382.23;207973;1313;141593;-75
2022/01/26 19:08:22;;;;;;;10.10;6.60;;;;;;;1.85;84.74;100390.45;207994;1313;140377;-73
2022/01/26 19:13:29;;;;;;;15.60;6.90;;;;;;;1.79;84.60;100394.83;208774;1313;140749;-77
2022/01/26 19:18:51;;;;;;;7.60;5.10;;;;;;;1.80;85.05;100391.77;208190;1313;139969;-74
2022/01/26 19:29:56;;;;;;;16.70;9.10;;;;;;;1.76;84.66;100388.48;208068;1313;140519;-76
2022/01/26 19:42:06;;;;;;;13.00;7.80;;;;;;;1.70;84.64;100373.35;208435;1313;224936;-75
2022/01/26 19:51:26;;;;;;;16.00;9.00;;;;;;;1.64;84.85;100359.53;208464;1313;140092;-71
2022/01/26 19:56:31;;;;;;;16.30;9.70;;;;;;;1.64;84.86;100370.27;207124;1313;139843;-69
2022/01/26 20:01:34;;;;;;;12.90;9.50;;;;;;;1.61;85.02;100371.29;208520;1313;140953;-70
2022/01/26 20:06:42;;;;;;;15.80;8.70;;;;;;;1.62;84.70;100366.59;208822;1313;139506;-71
2022/01/26 20:11:56;;;;;;;13.70;10.40;;;;;;;1.65;84.89;100369.59;207824;1313;141484;-72
2022/01/26 20:17:43;;;;;;;12.40;9.20;;;;;;;1.67;85.01;100367.86;208525;1313;139290;-77
2022/01/26 20:22:50;;;;;;;20.40;11.00;;;;;;;1.65;84.72;100352.81;208406;1313;140509;-70
2022/01/26 20:27:54;;;;;;;17.10;9.50;;;;;;;1.63;84.58;100345.30;208439;1312;142847;-72
2022/01/26 20:33:17;;;;;;;15.20;10.40;;;;;;;1.59;84.72;100341.13;209375;1314;141160;-71
2022/01/26 20:38:20;;;;;;;17.00;10.70;;;;;;;1.60;84.81;100339.10;209350;1313;140779;-69
2022/01/26 20:43:24;;;;;;;14.80;10.50;;;;;;;1.59;84.66;100330.13;209525;1313;140242;-71
2022/01/26 20:48:28;;;;;;;18.00;10.50;;;;;;;1.60;84.61;100325.10;209794;1313;140550;-69
2022/01/26 20:53:31;;;;;;;16.10;10.60;;;;;;;1.62;84.63;100310.05;208662;1314;141616;-68
2022/01/26 20:58:34;;;;;;;14.30;8.20;;;;;;;1.60;84.65;100305.13;209470;1313;140343;-72
2022/01/26 21:03:45;;;;;;;16.10;10.00;;;;;;;1.55;84.58;100301.11;208559;1313;140979;-69
2022/01/26 21:08:49;;;;;;;15.80;10.20;;;;;;;1.52;84.54;100304.97;208737;1313;142531;-76
2022/01/26 21:14:12;;;;;;;13.10;8.40;;;;;;;1.52;84.83;100309.73;208834;1313;141375;-86
2022/01/26 21:19:18;;;;;;;17.80;11.50;;;;;;;1.49;84.70;100317.42;208908;1313;141764;-83
2022/01/26 21:24:25;;;;;;;16.10;10.00;;;;;;;1.50;84.99;100327.11;208264;1313;140989;-80
2022/01/26 21:29:34;;;;;;;15.70;9.40;;;;;;;1.46;84.72;100329.33;207505;1313;139842;-70
2022/01/26 21:34:46;;;;;;;18.70;12.10;;;;;;;1.42;84.87;100322.69;208142;1313;141137;-71
2022/01/26 21:39:50;;;;;;;15.20;10.20;;;;;;;1.41;84.82;100325.31;207740;1314;141857;-75
2022/01/26 21:44:55;;;;;;;15.60;11.40;;;;;;;1.39;84.72;100325.13;207880;1313;140123;-72
2022/01/26 21:49:58;;;;;;;13.60;11.10;;;;;;;1.39;84.68;100314.30;208211;1311;141025;-69
2022/01/26 21:55:02;;;;;;;13.00;10.10;;;;;;;1.34;84.86;100308.61;209856;1313;140277;-71
2022/01/26 22:00:09;;;;;;;9.70;6.90;;;;;;;1.34;84.62;100308.67;208445;1313;140244;-71
2022/01/26 22:05:13;;;;;;;15.80;9.30;;;;;;;1.36;84.61;100297.61;207826;1313;140483;-73
2022/01/26 22:10:16;;;;;;;11.30;8.10;;;;;;;1.30;84.76;100304.86;208020;1313;140103;-73
2022/01/26 22:15:42;;;;;;;13.20;9.40;;;;;;;1.21;84.18;100306.33;209645;1313;140855;-70
2022/01/26 22:20:45;;;;;;;12.60;8.90;;;;;;;1.19;84.44;100302.05;208629;1313;140512;-76
2022/01/26 22:25:48;;;;;;;15.50;7.30;;;;;;;1.19;84.95;100310.07;208913;1313;140402;-72
2022/01/26 22:30:51;;;;;;;17.10;9.60;;;;;;;1.16;84.53;100293.41;210121;1313;140324;-74
2022/01/26 22:35:54;;;;;;;10.50;6.30;;;;;;;1.15;84.94;100296.00;209390;1313;140430;-78
2022/01/26 22:40:59;;;;;;;22.50;10.50;;;;;;;1.13;84.63;100288.09;208980;1314;141420;-77
2022/01/26 22:46:02;;;;;;;12.20;6.30;;;;;;;1.18;84.64;100294.20;209522;1313;140649;-71
2022/01/26 22:51:09;;;;;;;16.20;10.60;;;;;;;1.19;84.56;100295.33;210343;1314;140143;-81
2022/01/26 22:56:33;;;;;;;20.60;10.10;;;;;;;1.18;84.62;100293.09;208198;1313;139650;-76
2022/01/26 23:06:48;;;;;;;15.30;8.10;;;;;;;1.09;84.31;100287.84;209546;1314;140528;-76
2022/01/26 23:11:58;;;;;;;23.80;11.30;;;;;;;1.07;84.52;100282.65;208796;1317;141701;-77
2022/01/26 23:17:03;;;;;;;22.90;10.10;;;;;;;1.12;84.58;100275.45;208723;1314;140648;-76
2022/01/26 23:22:08;;;;;;;25.30;9.90;;;;;;;1.09;84.68;100265.45;207566;1313;139667;-74
2022/01/26 23:27:46;;;;;;;25.80;10.80;;;;;;;1.06;84.33;100263.52;208390;1314;139402;-72
2022/01/26 23:38:05;;;;;;;25.70;11.20;;;;;;;1.03;84.83;100260.41;208373;1313;138739;-77
